Loraine, North Dakota
Current Conditions -  °F | °C
As of 2:58 PM on Sunday 21 Dec 2014 (Local Time) from KMIB Reporting Station
Overcast Overcast  
Wind Chill: 26°   Ceiling: 9500
Heat Index: 34°   Visibility: 10mi
Dew Point: 34°   Wind: 9mph
Humidity: 100%   Direction: 110°ESE
Pressure: 29.39"   Gusts: NA
Location:  48.7974°N, 101.602°W
Report Text: KMIB 212058Z AUTO 11008KT 10SM OVC095 01/01 A2939 RMK AO2 SLP979 T00100010 57023 $
Loading
Personal Weather Stations






























Interactive Weather Map New forecast layout! Learn more

10-Day Weather Forecast

Advertisements
Track Severe Weather on mobile